Terminal Aerodrome Forecast
Issued by NWS Charleston, WV

Current Version | Previous Version | Text Only | Print | Product List | Glossary Off
Versions: 1 2 3 4 5 6 7 8 9 10 11 12 13 14 15 16 17 18 19 20 21 22 23 24 25

619
FTUS41 KRLX 010306 AAA
TAFEKN
TAF AMD
KEKN 010306Z 0103/0124 16006KT P6SM OVC045
     FM010400 18006KT P6SM OVC025
     FM010800 20009KT P6SM OVC035
     FM011000 20010KT P6SM SCT040 OVC250
     FM011600 24016G36KT P6SM +SHRA VCTS SCT020 OVC040CB
     FM011800 24016G36KT 4SM +SHRA VCTS SCT020 OVC035CB
     FM012100 25015G34KT P6SM +SHRA VCTS SCT015 OVC035CB=

USA.gov is the U.S. government's official web portal to all federal, state and local government web resources and services.